sensor_id;sensor_type;location;lat;lon;timestamp;temperature;humidity
16160;DHT22;8185;57.818;15.224;2023-02-28T00:00:34;-1.90;99.90
16160;DHT22;8185;57.818;15.224;2023-02-28T00:03:01;-2.00;99.90
16160;DHT22;8185;57.818;15.224;2023-02-28T00:05:29;-2.00;99.90
16160;DHT22;8185;57.818;15.224;2023-02-28T00:07:56;-2.30;99.90
16160;DHT22;8185;57.818;15.224;2023-02-28T00:10:26;-2.50;99.90
16160;DHT22;8185;57.818;15.224;2023-02-28T00:12:56;-2.60;99.90
16160;DHT22;8185;57.818;15.224;2023-02-28T00:15:24;-2.50;99.90
16160;DHT22;8185;57.818;15.224;2023-02-28T00:17:51;-2.60;99.90
16160;DHT22;8185;57.818;15.224;2023-02-28T00:20:19;-2.70;99.90
16160;DHT22;8185;57.818;15.224;2023-02-28T00:22:48;-2.70;99.90
16160;DHT22;8185;57.818;15.224;2023-02-28T00:25:17;-2.60;99.90
16160;DHT22;8185;57.818;15.224;2023-02-28T00:27:47;-2.70;99.90
16160;DHT22;8185;57.818;15.224;2023-02-28T00:30:15;-2.70;99.90
16160;DHT22;8185;57.818;15.224;2023-02-28T00:32:43;-2.80;99.90
16160;DHT22;8185;57.818;15.224;2023-02-28T00:35:11;-2.70;99.90
16160;DHT22;8185;57.818;15.224;2023-02-28T00:37:39;-2.80;99.90
16160;DHT22;8185;57.818;15.224;2023-02-28T00:40:07;-2.80;99.90
16160;DHT22;8185;57.818;15.224;2023-02-28T00:42:35;-2.80;99.90
16160;DHT22;8185;57.818;15.224;2023-02-28T00:45:04;-2.90;99.90
16160;DHT22;8185;57.818;15.224;2023-02-28T00:47:32;-3.00;99.90
16160;DHT22;8185;57.818;15.224;2023-02-28T00:49:59;-3.00;99.90
16160;DHT22;8185;57.818;15.224;2023-02-28T00:52:26;-3.00;99.90
16160;DHT22;8185;57.818;15.224;2023-02-28T00:54:54;-3.00;99.90
16160;DHT22;8185;57.818;15.224;2023-02-28T00:57:21;-3.10;99.90
16160;DHT22;8185;57.818;15.224;2023-02-28T00:59:48;-3.00;99.90
16160;DHT22;8185;57.818;15.224;2023-02-28T01:02:17;-2.80;99.90
16160;DHT22;8185;57.818;15.224;2023-02-28T01:04:46;-2.70;99.90
16160;DHT22;8185;57.818;15.224;2023-02-28T01:07:13;-2.60;99.90
16160;DHT22;8185;57.818;15.224;2023-02-28T01:09:41;-2.60;99.90
16160;DHT22;8185;57.818;15.224;2023-02-28T01:12:09;-2.60;99.90
16160;DHT22;8185;57.818;15.224;2023-02-28T01:14:36;-2.60;99.90
16160;DHT22;8185;57.818;15.224;2023-02-28T01:17:03;-2.60;99.90
16160;DHT22;8185;57.818;15.224;2023-02-28T01:19:32;-2.50;99.90
16160;DHT22;8185;57.818;15.224;2023-02-28T01:22:01;-2.50;99.90
16160;DHT22;8185;57.818;15.224;2023-02-28T01:24:29;-2.50;99.90
16160;DHT22;8185;57.818;15.224;2023-02-28T01:26:56;-2.60;99.90
16160;DHT22;8185;57.818;15.224;2023-02-28T01:29:23;-2.50;99.90
16160;DHT22;8185;57.818;15.224;2023-02-28T01:31:50;-2.50;99.90
16160;DHT22;8185;57.818;15.224;2023-02-28T01:34:18;-2.30;99.90
16160;DHT22;8185;57.818;15.224;2023-02-28T01:36:46;-2.30;99.90
16160;DHT22;8185;57.818;15.224;2023-02-28T01:39:13;-2.30;99.90
16160;DHT22;8185;57.818;15.224;2023-02-28T01:41:41;-2.30;99.90
16160;DHT22;8185;57.818;15.224;2023-02-28T01:47:09;-2.30;99.90
16160;DHT22;8185;57.818;15.224;2023-02-28T01:49:36;-2.30;99.90
16160;DHT22;8185;57.818;15.224;2023-02-28T01:52:05;-2.20;99.90
16160;DHT22;8185;57.818;15.224;2023-02-28T01:54:34;-2.30;99.90
16160;DHT22;8185;57.818;15.224;2023-02-28T01:57:04;-2.40;99.90
16160;DHT22;8185;57.818;15.224;2023-02-28T01:59:37;-2.40;99.90
16160;DHT22;8185;57.818;15.224;2023-02-28T02:02:07;-2.40;99.90
16160;DHT22;8185;57.818;15.224;2023-02-28T02:04:38;-2.50;99.90
16160;DHT22;8185;57.818;15.224;2023-02-28T02:07:11;-2.50;99.90
16160;DHT22;8185;57.818;15.224;2023-02-28T02:09:39;-2.60;99.90
16160;DHT22;8185;57.818;15.224;2023-02-28T02:12:17;-2.50;99.90
16160;DHT22;8185;57.818;15.224;2023-02-28T02:15:00;-2.30;99.90
16160;DHT22;8185;57.818;15.224;2023-02-28T02:17:34;-2.30;99.90
16160;DHT22;8185;57.818;15.224;2023-02-28T02:20:32;-2.30;99.90
16160;DHT22;8185;57.818;15.224;2023-02-28T02:26:18;-2.30;99.90
16160;DHT22;8185;57.818;15.224;2023-02-28T02:29:22;-2.40;99.90
16160;DHT22;8185;57.818;15.224;2023-02-28T02:32:27;-2.50;99.90
16160;DHT22;8185;57.818;15.224;2023-02-28T02:35:11;-2.40;99.90
16160;DHT22;8185;57.818;15.224;2023-02-28T02:37:44;-2.40;99.90
16160;DHT22;8185;57.818;15.224;2023-02-28T02:40:17;-2.50;99.90
16160;DHT22;8185;57.818;15.224;2023-02-28T02:42:50;-2.50;99.90
16160;DHT22;8185;57.818;15.224;2023-02-28T02:45:23;-2.40;99.90
16160;DHT22;8185;57.818;15.224;2023-02-28T02:47:51;-2.40;99.90
16160;DHT22;8185;57.818;15.224;2023-02-28T02:50:25;-2.50;99.90
16160;DHT22;8185;57.818;15.224;2023-02-28T02:52:57;-2.50;99.90
16160;DHT22;8185;57.818;15.224;2023-02-28T02:55:26;-2.60;99.90
16160;DHT22;8185;57.818;15.224;2023-02-28T02:57:56;-2.60;99.90
16160;DHT22;8185;57.818;15.224;2023-02-28T03:00:27;-2.60;99.90
16160;DHT22;8185;57.818;15.224;2023-02-28T03:02:56;-2.70;99.90
16160;DHT22;8185;57.818;15.224;2023-02-28T03:05:29;-2.80;99.90
16160;DHT22;8185;57.818;15.224;2023-02-28T03:07:59;-2.90;99.90
16160;DHT22;8185;57.818;15.224;2023-02-28T03:10:30;-2.90;99.90
16160;DHT22;8185;57.818;15.224;2023-02-28T03:13:11;-2.90;99.90
16160;DHT22;8185;57.818;15.224;2023-02-28T03:15:49;-2.90;99.90
16160;DHT22;8185;57.818;15.224;2023-02-28T03:18:26;-2.70;99.90
16160;DHT22;8185;57.818;15.224;2023-02-28T03:21:02;-2.60;99.90
16160;DHT22;8185;57.818;15.224;2023-02-28T03:23:38;-2.60;99.90
16160;DHT22;8185;57.818;15.224;2023-02-28T03:26:17;-2.60;99.90
16160;DHT22;8185;57.818;15.224;2023-02-28T03:28:52;-2.70;99.90
16160;DHT22;8185;57.818;15.224;2023-02-28T03:31:26;-2.80;99.90
16160;DHT22;8185;57.818;15.224;2023-02-28T03:33:59;-2.80;99.90
16160;DHT22;8185;57.818;15.224;2023-02-28T03:36:30;-2.80;99.90
16160;DHT22;8185;57.818;15.224;2023-02-28T03:39:03;-2.80;99.90
16160;DHT22;8185;57.818;15.224;2023-02-28T03:41:35;-2.80;99.90
16160;DHT22;8185;57.818;15.224;2023-02-28T03:44:10;-2.80;99.90
16160;DHT22;8185;57.818;15.224;2023-02-28T03:46:44;-2.70;99.90
16160;DHT22;8185;57.818;15.224;2023-02-28T03:49:15;-2.80;99.90
16160;DHT22;8185;57.818;15.224;2023-02-28T03:51:46;-2.80;99.90
16160;DHT22;8185;57.818;15.224;2023-02-28T03:54:17;-2.80;99.90
16160;DHT22;8185;57.818;15.224;2023-02-28T03:56:48;-2.80;99.90
16160;DHT22;8185;57.818;15.224;2023-02-28T03:59:20;-2.80;99.90
16160;DHT22;8185;57.818;15.224;2023-02-28T04:01:49;-3.00;99.90
16160;DHT22;8185;57.818;15.224;2023-02-28T04:04:17;-3.00;99.90
16160;DHT22;8185;57.818;15.224;2023-02-28T04:06:50;-3.00;99.90
16160;DHT22;8185;57.818;15.224;2023-02-28T04:09:17;-3.10;99.90
16160;DHT22;8185;57.818;15.224;2023-02-28T04:11:47;-3.20;99.90
16160;DHT22;8185;57.818;15.224;2023-02-28T04:14:17;-3.30;99.90
16160;DHT22;8185;57.818;15.224;2023-02-28T04:16:45;-3.30;99.90
16160;DHT22;8185;57.818;15.224;2023-02-28T04:19:13;-3.30;99.90
16160;DHT22;8185;57.818;15.224;2023-02-28T04:21:42;-3.40;99.90
16160;DHT22;8185;57.818;15.224;2023-02-28T04:24:12;-3.30;99.90
16160;DHT22;8185;57.818;15.224;2023-02-28T04:26:41;-3.20;99.90
16160;DHT22;8185;57.818;15.224;2023-02-28T04:29:11;-3.30;99.90
16160;DHT22;8185;57.818;15.224;2023-02-28T04:31:39;-3.40;99.90
16160;DHT22;8185;57.818;15.224;2023-02-28T04:34:06;-3.30;99.90
16160;DHT22;8185;57.818;15.224;2023-02-28T04:36:34;-3.30;99.90
16160;DHT22;8185;57.818;15.224;2023-02-28T04:39:01;-3.30;99.90
16160;DHT22;8185;57.818;15.224;2023-02-28T04:41:31;-3.20;99.90
16160;DHT22;8185;57.818;15.224;2023-02-28T04:43:58;-3.10;99.90
16160;DHT22;8185;57.818;15.224;2023-02-28T04:46:25;-3.10;99.90
16160;DHT22;8185;57.818;15.224;2023-02-28T04:48:52;-3.10;99.90
16160;DHT22;8185;57.818;15.224;2023-02-28T04:51:20;-3.00;99.90
16160;DHT22;8185;57.818;15.224;2023-02-28T04:53:48;-3.10;99.90
16160;DHT22;8185;57.818;15.224;2023-02-28T04:56:16;-3.10;99.90
16160;DHT22;8185;57.818;15.224;2023-02-28T04:58:46;-2.90;99.90
16160;DHT22;8185;57.818;15.224;2023-02-28T05:01:19;-2.90;99.90
16160;DHT22;8185;57.818;15.224;2023-02-28T05:03:47;-3.00;99.90
16160;DHT22;8185;57.818;15.224;2023-02-28T05:06:15;-3.00;99.90
16160;DHT22;8185;57.818;15.224;2023-02-28T05:08:42;-3.10;99.90
16160;DHT22;8185;57.818;15.224;2023-02-28T05:11:15;-3.00;99.90
16160;DHT22;8185;57.818;15.224;2023-02-28T05:13:44;-2.90;99.90
16160;DHT22;8185;57.818;15.224;2023-02-28T05:16:12;-3.10;99.90
16160;DHT22;8185;57.818;15.224;2023-02-28T05:18:39;-3.20;99.90
16160;DHT22;8185;57.818;15.224;2023-02-28T05:21:12;-3.20;99.90
16160;DHT22;8185;57.818;15.224;2023-02-28T05:23:49;-3.20;99.90
16160;DHT22;8185;57.818;15.224;2023-02-28T05:26:16;-3.00;99.90
16160;DHT22;8185;57.818;15.224;2023-02-28T05:28:45;-3.10;99.90
16160;DHT22;8185;57.818;15.224;2023-02-28T05:31:12;-3.20;99.90
16160;DHT22;8185;57.818;15.224;2023-02-28T05:33:40;-3.20;99.90
16160;DHT22;8185;57.818;15.224;2023-02-28T05:36:07;-3.30;99.90
16160;DHT22;8185;57.818;15.224;2023-02-28T05:38:35;-2.90;99.90
16160;DHT22;8185;57.818;15.224;2023-02-28T05:41:06;-2.90;99.90
16160;DHT22;8185;57.818;15.224;2023-02-28T05:43:33;-3.00;99.90
16160;DHT22;8185;57.818;15.224;2023-02-28T05:46:04;-3.10;99.90
16160;DHT22;8185;57.818;15.224;2023-02-28T05:48:33;-3.10;99.90
16160;DHT22;8185;57.818;15.224;2023-02-28T05:51:00;-3.30;99.90
16160;DHT22;8185;57.818;15.224;2023-02-28T05:53:28;-3.30;99.90
16160;DHT22;8185;57.818;15.224;2023-02-28T05:55:56;-3.20;99.90
16160;DHT22;8185;57.818;15.224;2023-02-28T05:58:23;-3.20;99.90
16160;DHT22;8185;57.818;15.224;2023-02-28T06:00:51;-3.10;99.90
16160;DHT22;8185;57.818;15.224;2023-02-28T06:03:19;-3.10;99.90
16160;DHT22;8185;57.818;15.224;2023-02-28T06:05:46;-3.10;99.90
16160;DHT22;8185;57.818;15.224;2023-02-28T06:08:14;-3.00;99.90
16160;DHT22;8185;57.818;15.224;2023-02-28T06:10:41;-3.00;99.90
16160;DHT22;8185;57.818;15.224;2023-02-28T06:13:08;-3.00;99.90
16160;DHT22;8185;57.818;15.224;2023-02-28T06:15:35;-3.00;99.90
16160;DHT22;8185;57.818;15.224;2023-02-28T06:18:03;-3.00;99.90
16160;DHT22;8185;57.818;15.224;2023-02-28T06:20:31;-2.90;99.90
16160;DHT22;8185;57.818;15.224;2023-02-28T06:22:59;-2.70;99.90
16160;DHT22;8185;57.818;15.224;2023-02-28T06:25:27;-2.60;99.90
16160;DHT22;8185;57.818;15.224;2023-02-28T06:27:55;-2.50;99.90
16160;DHT22;8185;57.818;15.224;2023-02-28T06:30:22;-2.30;99.90
16160;DHT22;8185;57.818;15.224;2023-02-28T06:32:52;-2.20;99.90
16160;DHT22;8185;57.818;15.224;2023-02-28T06:35:20;-2.10;99.90
16160;DHT22;8185;57.818;15.224;2023-02-28T06:37:48;-2.00;99.90
16160;DHT22;8185;57.818;15.224;2023-02-28T06:40:16;-2.00;99.90
16160;DHT22;8185;57.818;15.224;2023-02-28T06:42:43;-2.00;99.90
16160;DHT22;8185;57.818;15.224;2023-02-28T06:45:11;-2.00;99.90
16160;DHT22;8185;57.818;15.224;2023-02-28T06:47:39;-1.90;99.90
16160;DHT22;8185;57.818;15.224;2023-02-28T06:50:08;-1.80;99.90
16160;DHT22;8185;57.818;15.224;2023-02-28T06:52:36;-1.70;99.90
16160;DHT22;8185;57.818;15.224;2023-02-28T06:55:07;-1.60;99.90
16160;DHT22;8185;57.818;15.224;2023-02-28T06:57:36;-1.60;99.90
16160;DHT22;8185;57.818;15.224;2023-02-28T07:00:06;-1.60;99.90
16160;DHT22;8185;57.818;15.224;2023-02-28T07:02:34;-1.80;99.90
16160;DHT22;8185;57.818;15.224;2023-02-28T07:05:01;-1.60;99.90
16160;DHT22;8185;57.818;15.224;2023-02-28T07:07:28;-1.60;99.90
16160;DHT22;8185;57.818;15.224;2023-02-28T07:09:56;-1.60;99.90
16160;DHT22;8185;57.818;15.224;2023-02-28T07:12:24;-1.60;99.90
16160;DHT22;8185;57.818;15.224;2023-02-28T07:14:51;-1.60;99.90
16160;DHT22;8185;57.818;15.224;2023-02-28T07:17:20;-1.50;99.90
16160;DHT22;8185;57.818;15.224;2023-02-28T07:19:47;-1.40;99.90
16160;DHT22;8185;57.818;15.224;2023-02-28T07:22:14;-1.20;99.90
16160;DHT22;8185;57.818;15.224;2023-02-28T07:24:41;-1.00;99.90
16160;DHT22;8185;57.818;15.224;2023-02-28T07:27:09;-0.90;99.90
16160;DHT22;8185;57.818;15.224;2023-02-28T07:29:37;-0.90;99.90
16160;DHT22;8185;57.818;15.224;2023-02-28T07:32:05;-0.90;99.90
16160;DHT22;8185;57.818;15.224;2023-02-28T07:34:32;-0.80;99.90
16160;DHT22;8185;57.818;15.224;2023-02-28T07:37:00;-0.60;99.90
16160;DHT22;8185;57.818;15.224;2023-02-28T07:39:29;-0.60;99.90
16160;DHT22;8185;57.818;15.224;2023-02-28T07:41:56;-0.50;99.90
16160;DHT22;8185;57.818;15.224;2023-02-28T07:44:25;-0.40;99.90
16160;DHT22;8185;57.818;15.224;2023-02-28T07:46:53;-0.40;99.90
16160;DHT22;8185;57.818;15.224;2023-02-28T07:49:21;-0.30;99.90
16160;DHT22;8185;57.818;15.224;2023-02-28T07:51:48;-0.20;99.90
16160;DHT22;8185;57.818;15.224;2023-02-28T07:54:15;-0.10;99.90
16160;DHT22;8185;57.818;15.224;2023-02-28T07:56:42;0.00;99.90
16160;DHT22;8185;57.818;15.224;2023-02-28T07:59:10;0.00;99.90
16160;DHT22;8185;57.818;15.224;2023-02-28T08:01:37;0.10;99.90
16160;DHT22;8185;57.818;15.224;2023-02-28T08:04:05;0.10;99.90
16160;DHT22;8185;57.818;15.224;2023-02-28T08:06:32;0.10;99.90
16160;DHT22;8185;57.818;15.224;2023-02-28T08:08:59;0.20;99.90
16160;DHT22;8185;57.818;15.224;2023-02-28T08:11:27;0.20;99.90
16160;DHT22;8185;57.818;15.224;2023-02-28T08:13:54;0.30;99.90
16160;DHT22;8185;57.818;15.224;2023-02-28T08:16:22;0.40;99.90
16160;DHT22;8185;57.818;15.224;2023-02-28T08:18:50;0.50;99.90
16160;DHT22;8185;57.818;15.224;2023-02-28T08:21:19;0.60;99.90
16160;DHT22;8185;57.818;15.224;2023-02-28T08:23:47;0.70;99.90
16160;DHT22;8185;57.818;15.224;2023-02-28T08:26:14;0.80;99.90
16160;DHT22;8185;57.818;15.224;2023-02-28T08:28:42;0.90;99.90
16160;DHT22;8185;57.818;15.224;2023-02-28T08:31:11;1.00;99.90
16160;DHT22;8185;57.818;15.224;2023-02-28T08:33:39;1.10;99.90
16160;DHT22;8185;57.818;15.224;2023-02-28T08:36:08;1.30;99.90
16160;DHT22;8185;57.818;15.224;2023-02-28T08:38:37;1.40;99.90
16160;DHT22;8185;57.818;15.224;2023-02-28T08:41:07;1.50;99.90
16160;DHT22;8185;57.818;15.224;2023-02-28T08:43:35;1.80;99.90
16160;DHT22;8185;57.818;15.224;2023-02-28T08:46:03;1.90;99.90
16160;DHT22;8185;57.818;15.224;2023-02-28T08:48:31;2.00;99.90
16160;DHT22;8185;57.818;15.224;2023-02-28T08:51:00;2.20;99.90
16160;DHT22;8185;57.818;15.224;2023-02-28T08:53:27;2.50;99.90
16160;DHT22;8185;57.818;15.224;2023-02-28T08:56:00;2.50;99.90
16160;DHT22;8185;57.818;15.224;2023-02-28T08:58:28;2.50;99.90
16160;DHT22;8185;57.818;15.224;2023-02-28T09:00:56;2.70;99.90
16160;DHT22;8185;57.818;15.224;2023-02-28T09:03:24;2.80;99.90
16160;DHT22;8185;57.818;15.224;2023-02-28T09:05:55;3.00;99.90
16160;DHT22;8185;57.818;15.224;2023-02-28T09:08:22;3.20;99.90
16160;DHT22;8185;57.818;15.224;2023-02-28T09:10:50;3.40;99.90
16160;DHT22;8185;57.818;15.224;2023-02-28T09:13:19;3.50;99.90
16160;DHT22;8185;57.818;15.224;2023-02-28T09:15:46;3.60;99.90
16160;DHT22;8185;57.818;15.224;2023-02-28T09:18:14;3.80;99.90
16160;DHT22;8185;57.818;15.224;2023-02-28T09:20:42;3.90;99.90
16160;DHT22;8185;57.818;15.224;2023-02-28T09:23:11;3.90;99.90
16160;DHT22;8185;57.818;15.224;2023-02-28T09:25:45;4.00;99.90
16160;DHT22;8185;57.818;15.224;2023-02-28T09:28:13;4.00;99.90
16160;DHT22;8185;57.818;15.224;2023-02-28T09:30:44;4.10;99.90
16160;DHT22;8185;57.818;15.224;2023-02-28T09:33:12;4.10;99.90
16160;DHT22;8185;57.818;15.224;2023-02-28T09:35:39;4.30;99.90
16160;DHT22;8185;57.818;15.224;2023-02-28T09:38:06;4.50;99.90
16160;DHT22;8185;57.818;15.224;2023-02-28T09:40:37;4.60;99.90
16160;DHT22;8185;57.818;15.224;2023-02-28T09:43:09;4.80;99.90
16160;DHT22;8185;57.818;15.224;2023-02-28T09:45:40;5.10;99.90
16160;DHT22;8185;57.818;15.224;2023-02-28T09:48:16;5.40;99.90
16160;DHT22;8185;57.818;15.224;2023-02-28T09:50:47;5.90;99.90
16160;DHT22;8185;57.818;15.224;2023-02-28T09:53:21;6.20;99.90
16160;DHT22;8185;57.818;15.224;2023-02-28T09:55:51;6.30;99.90
16160;DHT22;8185;57.818;15.224;2023-02-28T09:58:23;6.70;99.90
16160;DHT22;8185;57.818;15.224;2023-02-28T10:00:58;6.90;99.90
16160;DHT22;8185;57.818;15.224;2023-02-28T10:03:35;7.00;99.90
16160;DHT22;8185;57.818;15.224;2023-02-28T10:06:11;7.30;99.90
16160;DHT22;8185;57.818;15.224;2023-02-28T10:08:45;7.40;99.90
16160;DHT22;8185;57.818;15.224;2023-02-28T10:11:18;7.40;99.90
16160;DHT22;8185;57.818;15.224;2023-02-28T10:13:52;7.70;99.90
16160;DHT22;8185;57.818;15.224;2023-02-28T10:16:26;7.80;99.90
16160;DHT22;8185;57.818;15.224;2023-02-28T10:19:02;8.10;99.90
16160;DHT22;8185;57.818;15.224;2023-02-28T10:21:34;8.50;99.90
16160;DHT22;8185;57.818;15.224;2023-02-28T10:24:19;8.80;99.90
16160;DHT22;8185;57.818;15.224;2023-02-28T10:26:48;9.10;99.90
16160;DHT22;8185;57.818;15.224;2023-02-28T10:29:15;9.90;99.90
16160;DHT22;8185;57.818;15.224;2023-02-28T10:31:43;9.70;99.90
16160;DHT22;8185;57.818;15.224;2023-02-28T10:34:13;9.40;99.90
16160;DHT22;8185;57.818;15.224;2023-02-28T10:36:41;9.00;99.90
16160;DHT22;8185;57.818;15.224;2023-02-28T10:39:36;9.20;99.90
16160;DHT22;8185;57.818;15.224;2023-02-28T10:42:03;9.80;99.90
16160;DHT22;8185;57.818;15.224;2023-02-28T10:44:31;9.60;99.90
16160;DHT22;8185;57.818;15.224;2023-02-28T10:46:58;9.40;99.90
16160;DHT22;8185;57.818;15.224;2023-02-28T10:49:28;9.20;99.90
16160;DHT22;8185;57.818;15.224;2023-02-28T10:51:57;9.00;99.90
16160;DHT22;8185;57.818;15.224;2023-02-28T10:54:29;8.70;99.90
16160;DHT22;8185;57.818;15.224;2023-02-28T10:57:09;9.00;99.90
16160;DHT22;8185;57.818;15.224;2023-02-28T10:59:41;8.80;99.90
16160;DHT22;8185;57.818;15.224;2023-02-28T11:02:31;9.20;99.90
16160;DHT22;8185;57.818;15.224;2023-02-28T11:05:00;10.00;99.90
16160;DHT22;8185;57.818;15.224;2023-02-28T11:07:28;10.20;99.90
16160;DHT22;8185;57.818;15.224;2023-02-28T11:09:56;10.80;99.90
16160;DHT22;8185;57.818;15.224;2023-02-28T11:12:27;11.30;99.90
16160;DHT22;8185;57.818;15.224;2023-02-28T11:14:59;11.10;99.90
16160;DHT22;8185;57.818;15.224;2023-02-28T11:17:28;11.40;99.90
16160;DHT22;8185;57.818;15.224;2023-02-28T11:20:01;11.10;99.90
16160;DHT22;8185;57.818;15.224;2023-02-28T11:22:31;9.90;99.90
16160;DHT22;8185;57.818;15.224;2023-02-28T11:25:06;9.60;99.90
16160;DHT22;8185;57.818;15.224;2023-02-28T11:27:47;9.70;99.90
16160;DHT22;8185;57.818;15.224;2023-02-28T11:30:33;9.60;99.90
16160;DHT22;8185;57.818;15.224;2023-02-28T11:33:01;10.40;99.90
16160;DHT22;8185;57.818;15.224;2023-02-28T11:35:44;10.60;99.90
16160;DHT22;8185;57.818;15.224;2023-02-28T11:38:12;10.20;99.90
16160;DHT22;8185;57.818;15.224;2023-02-28T11:41:03;10.30;99.90
16160;DHT22;8185;57.818;15.224;2023-02-28T11:43:43;9.40;99.90
16160;DHT22;8185;57.818;15.224;2023-02-28T11:46:23;9.10;99.90
16160;DHT22;8185;57.818;15.224;2023-02-28T11:49:01;9.70;99.90
16160;DHT22;8185;57.818;15.224;2023-02-28T11:51:33;9.90;99.90
16160;DHT22;8185;57.818;15.224;2023-02-28T11:54:23;9.60;99.90
16160;DHT22;8185;57.818;15.224;2023-02-28T11:56:57;9.50;99.90
16160;DHT22;8185;57.818;15.224;2023-02-28T11:59:37;9.60;99.90
16160;DHT22;8185;57.818;15.224;2023-02-28T12:02:22;9.00;99.90
16160;DHT22;8185;57.818;15.224;2023-02-28T12:07:50;8.80;99.90
16160;DHT22;8185;57.818;15.224;2023-02-28T12:10:24;8.50;99.90
16160;DHT22;8185;57.818;15.224;2023-02-28T12:13:02;8.80;99.90
16160;DHT22;8185;57.818;15.224;2023-02-28T12:15:55;8.80;99.90
16160;DHT22;8185;57.818;15.224;2023-02-28T12:21:34;8.40;99.90
16160;DHT22;8185;57.818;15.224;2023-02-28T12:24:29;8.90;99.90
16160;DHT22;8185;57.818;15.224;2023-02-28T12:27:01;9.50;99.90
16160;DHT22;8185;57.818;15.224;2023-02-28T12:29:32;9.90;99.90
16160;DHT22;8185;57.818;15.224;2023-02-28T12:32:06;10.20;99.90
16160;DHT22;8185;57.818;15.224;2023-02-28T12:34:37;9.60;99.90
16160;DHT22;8185;57.818;15.224;2023-02-28T12:37:09;9.40;99.90
16160;DHT22;8185;57.818;15.224;2023-02-28T12:39:43;9.20;99.90
16160;DHT22;8185;57.818;15.224;2023-02-28T12:42:16;10.00;99.90
16160;DHT22;8185;57.818;15.224;2023-02-28T12:44:48;10.10;99.90
16160;DHT22;8185;57.818;15.224;2023-02-28T12:47:18;10.90;99.90
16160;DHT22;8185;57.818;15.224;2023-02-28T12:49:48;10.80;99.90
16160;DHT22;8185;57.818;15.224;2023-02-28T12:52:19;10.90;99.90
16160;DHT22;8185;57.818;15.224;2023-02-28T12:54:54;10.80;99.90
16160;DHT22;8185;57.818;15.224;2023-02-28T12:57:30;9.90;99.90
16160;DHT22;8185;57.818;15.224;2023-02-28T13:00:01;9.90;99.90
16160;DHT22;8185;57.818;15.224;2023-02-28T13:03:08;9.90;99.90
16160;DHT22;8185;57.818;15.224;2023-02-28T13:08:59;9.30;99.90
16160;DHT22;8185;57.818;15.224;2023-02-28T13:11:31;9.60;99.90
16160;DHT22;8185;57.818;15.224;2023-02-28T13:14:02;9.40;99.90
16160;DHT22;8185;57.818;15.224;2023-02-28T13:16:51;9.10;99.90
16160;DHT22;8185;57.818;15.224;2023-02-28T13:19:20;8.70;99.90
16160;DHT22;8185;57.818;15.224;2023-02-28T13:21:50;8.50;99.90
16160;DHT22;8185;57.818;15.224;2023-02-28T13:24:40;8.80;99.90
16160;DHT22;8185;57.818;15.224;2023-02-28T13:27:37;8.60;99.90
16160;DHT22;8185;57.818;15.224;2023-02-28T13:33:26;8.60;99.90
16160;DHT22;8185;57.818;15.224;2023-02-28T13:36:23;8.70;99.90
16160;DHT22;8185;57.818;15.224;2023-02-28T13:38:52;8.80;99.90
16160;DHT22;8185;57.818;15.224;2023-02-28T13:41:43;9.60;99.90
16160;DHT22;8185;57.818;15.224;2023-02-28T13:44:14;10.70;99.90
16160;DHT22;8185;57.818;15.224;2023-02-28T13:49:46;10.50;99.90
16160;DHT22;8185;57.818;15.224;2023-02-28T13:52:18;11.00;99.90
16160;DHT22;8185;57.818;15.224;2023-02-28T13:55:02;11.50;99.90
16160;DHT22;8185;57.818;15.224;2023-02-28T13:57:47;11.60;99.90
16160;DHT22;8185;57.818;15.224;2023-02-28T14:00:27;10.70;99.90
16160;DHT22;8185;57.818;15.224;2023-02-28T14:03:20;10.40;99.90
16160;DHT22;8185;57.818;15.224;2023-02-28T14:06:09;10.40;99.90
16160;DHT22;8185;57.818;15.224;2023-02-28T14:08:49;10.00;99.90
16160;DHT22;8185;57.818;15.224;2023-02-28T14:11:29;10.10;99.90
16160;DHT22;8185;57.818;15.224;2023-02-28T14:13:57;10.40;99.90
16160;DHT22;8185;57.818;15.224;2023-02-28T14:16:27;10.70;99.90
16160;DHT22;8185;57.818;15.224;2023-02-28T14:19:05;11.20;99.90
16160;DHT22;8185;57.818;15.224;2023-02-28T14:21:39;11.10;99.90
16160;DHT22;8185;57.818;15.224;2023-02-28T14:24:30;11.00;99.90
16160;DHT22;8185;57.818;15.224;2023-02-28T14:33:11;11.70;99.90
16160;DHT22;8185;57.818;15.224;2023-02-28T14:36:07;12.90;99.90
16160;DHT22;8185;57.818;15.224;2023-02-28T14:38:41;13.20;99.90
16160;DHT22;8185;57.818;15.224;2023-02-28T14:41:17;13.10;99.90
16160;DHT22;8185;57.818;15.224;2023-02-28T14:43:53;13.30;99.90
16160;DHT22;8185;57.818;15.224;2023-02-28T14:46:22;12.70;99.90
16160;DHT22;8185;57.818;15.224;2023-02-28T14:48:52;12.70;99.90
16160;DHT22;8185;57.818;15.224;2023-02-28T14:51:20;12.40;99.90
16160;DHT22;8185;57.818;15.224;2023-02-28T14:53:50;12.30;99.90
16160;DHT22;8185;57.818;15.224;2023-02-28T14:56:22;13.00;99.90
16160;DHT22;8185;57.818;15.224;2023-02-28T14:58:54;13.30;99.90
16160;DHT22;8185;57.818;15.224;2023-02-28T15:01:23;13.40;99.90
16160;DHT22;8185;57.818;15.224;2023-02-28T15:04:01;12.40;99.90
16160;DHT22;8185;57.818;15.224;2023-02-28T15:06:31;12.10;99.90
16160;DHT22;8185;57.818;15.224;2023-02-28T15:09:17;12.30;99.90
16160;DHT22;8185;57.818;15.224;2023-02-28T15:11:47;11.70;99.90
16160;DHT22;8185;57.818;15.224;2023-02-28T15:14:17;11.10;99.90
16160;DHT22;8185;57.818;15.224;2023-02-28T15:16:49;10.50;99.90
16160;DHT22;8185;57.818;15.224;2023-02-28T15:19:23;10.00;99.90
16160;DHT22;8185;57.818;15.224;2023-02-28T15:21:55;9.20;99.90
16160;DHT22;8185;57.818;15.224;2023-02-28T15:24:30;8.80;99.90
16160;DHT22;8185;57.818;15.224;2023-02-28T15:26:59;8.60;99.90
16160;DHT22;8185;57.818;15.224;2023-02-28T15:29:29;8.60;99.90
16160;DHT22;8185;57.818;15.224;2023-02-28T15:32:01;8.70;99.90
16160;DHT22;8185;57.818;15.224;2023-02-28T15:34:35;8.60;99.90
16160;DHT22;8185;57.818;15.224;2023-02-28T15:37:06;8.30;99.90
16160;DHT22;8185;57.818;15.224;2023-02-28T15:39:50;8.20;99.90
16160;DHT22;8185;57.818;15.224;2023-02-28T15:42:19;8.30;99.90
16160;DHT22;8185;57.818;15.224;2023-02-28T15:44:47;8.60;99.90
16160;DHT22;8185;57.818;15.224;2023-02-28T15:47:17;8.60;99.90
16160;DHT22;8185;57.818;15.224;2023-02-28T15:49:49;8.90;99.90
16160;DHT22;8185;57.818;15.224;2023-02-28T15:52:21;9.00;99.90
16160;DHT22;8185;57.818;15.224;2023-02-28T15:54:49;9.00;99.90
16160;DHT22;8185;57.818;15.224;2023-02-28T15:57:20;9.10;99.90
16160;DHT22;8185;57.818;15.224;2023-02-28T15:59:51;9.70;99.90
16160;DHT22;8185;57.818;15.224;2023-02-28T16:02:21;9.90;99.90
16160;DHT22;8185;57.818;15.224;2023-02-28T16:04:58;10.40;99.90
16160;DHT22;8185;57.818;15.224;2023-02-28T16:07:26;10.60;99.90
16160;DHT22;8185;57.818;15.224;2023-02-28T16:09:54;10.70;99.90
16160;DHT22;8185;57.818;15.224;2023-02-28T16:12:25;10.30;99.90
16160;DHT22;8185;57.818;15.224;2023-02-28T16:14:55;9.70;99.90
16160;DHT22;8185;57.818;15.224;2023-02-28T16:17:24;9.10;99.90
16160;DHT22;8185;57.818;15.224;2023-02-28T16:19:53;8.60;99.90
16160;DHT22;8185;57.818;15.224;2023-02-28T16:22:22;8.10;99.90
16160;DHT22;8185;57.818;15.224;2023-02-28T16:24:49;7.10;99.90
16160;DHT22;8185;57.818;15.224;2023-02-28T16:27:20;6.40;99.90
16160;DHT22;8185;57.818;15.224;2023-02-28T16:29:48;5.90;99.90
16160;DHT22;8185;57.818;15.224;2023-02-28T16:32:16;5.40;99.90